sim
Sign-in with your pilot id or email,
or register
Callsign
Passwort

Schedule Details

Flight Number: DLH1790
Departure: Munich Airport (EDDM) at 10:15
Arrival: Lisbon Humberto Delgado Airport (LPPT) at 13:20
Route: Lufthansa Passenger Schedule. Enter filed route here before submitting Pirep.

Weather Information
Getting current METAR information for EDDM 231250Z 25005KT 230V290 6000 SHRA SCT015 SCT020CB BKN043 18/15 Q1010 TEMPO 4000
Getting current METAR information for LPPT 231230Z 21011KT 9999 VCSH FEW015 FEW020TCU 23/19 Q1015

Schedule Frequency

Route Map